createdAt,value
2023-01-29T00:01:33.194Z,14.50
2023-01-29T00:04:01.155Z,13.20
2023-01-29T00:06:29.157Z,14.70
2023-01-29T00:08:57.159Z,14.20
2023-01-29T00:11:25.659Z,14.10
2023-01-29T00:13:53.603Z,13.50
2023-01-29T00:16:21.581Z,12.90
2023-01-29T00:18:49.546Z,13.20
2023-01-29T00:21:19.080Z,14.00
2023-01-29T00:23:47.251Z,12.60
2023-01-29T00:26:15.407Z,12.10
2023-01-29T00:28:43.230Z,13.70
2023-01-29T00:31:15.379Z,13.90
2023-01-29T00:33:43.361Z,12.00
2023-01-29T00:36:14.116Z,12.80
2023-01-29T00:38:41.950Z,16.00
2023-01-29T00:41:33.201Z,15.20
2023-01-29T00:44:19.854Z,20.40
2023-01-29T00:46:47.705Z,12.50
2023-01-29T00:49:15.505Z,18.00
2023-01-29T00:51:43.327Z,14.80
2023-01-29T00:54:11.781Z,13.30
2023-01-29T00:56:39.681Z,16.20
2023-01-29T00:59:07.517Z,17.60
2023-01-29T01:01:54.128Z,17.80
2023-01-29T01:04:22.021Z,15.70
2023-01-29T01:06:49.811Z,16.50
2023-01-29T01:09:36.437Z,16.10
2023-01-29T01:12:04.404Z,15.50
2023-01-29T01:14:35.159Z,18.40
2023-01-29T01:17:03.158Z,15.40
2023-01-29T01:19:31.112Z,18.10
2023-01-29T01:21:58.911Z,16.30
2023-01-29T01:24:26.828Z,19.10
2023-01-29T01:26:54.735Z,17.90
2023-01-29T01:29:22.870Z,17.70
2023-01-29T01:31:50.673Z,17.40
2023-01-29T01:34:18.515Z,15.60
2023-01-29T01:36:46.329Z,21.40
2023-01-29T01:39:14.293Z,16.60
2023-01-29T01:41:42.175Z,16.50
2023-01-29T01:44:28.784Z,20.30
2023-01-29T01:46:56.582Z,15.10
2023-01-29T01:49:24.870Z,16.90
2023-01-29T01:51:52.776Z,15.40
2023-01-29T01:54:38.710Z,14.80
2023-01-29T01:57:15.810Z,15.20
2023-01-29T01:59:46.809Z,16.10
2023-01-29T02:02:34.001Z,12.70
2023-01-29T02:05:20.797Z,14.30
2023-01-29T02:08:07.943Z,13.40
2023-01-29T02:10:38.242Z,14.40
2023-01-29T02:13:06.584Z,15.20
2023-01-29T02:15:34.430Z,12.30
2023-01-29T02:18:02.475Z,14.10
2023-01-29T02:20:34.322Z,14.00
2023-01-29T02:23:23.404Z,12.70
2023-01-29T02:25:51.163Z,12.20
2023-01-29T02:28:18.868Z,13.80
2023-01-29T02:30:52.693Z,13.40
2023-01-29T02:33:31.499Z,13.20
2023-01-29T02:36:04.948Z,12.10
2023-01-29T02:39:00.071Z,11.70
2023-01-29T02:41:31.982Z,12.60
2023-01-29T02:44:06.037Z,13.00
2023-01-29T02:46:36.988Z,13.30
2023-01-29T02:49:17.024Z,12.30
2023-01-29T02:51:50.332Z,10.30
2023-01-29T02:54:23.822Z,12.50
2023-01-29T02:56:56.495Z,13.90
2023-01-29T02:59:35.555Z,11.30
2023-01-29T03:02:07.441Z,11.30
2023-01-29T03:04:42.609Z,13.60
2023-01-29T03:07:32.247Z,13.80
2023-01-29T03:10:02.209Z,11.40
2023-01-29T03:12:36.553Z,13.00
2023-01-29T03:15:17.089Z,12.30
2023-01-29T03:17:44.841Z,10.60
2023-01-29T03:20:16.413Z,11.90
2023-01-29T03:22:46.689Z,11.70
2023-01-29T03:25:33.644Z,12.50
2023-01-29T03:28:22.672Z,13.90
2023-01-29T03:31:11.731Z,14.50
2023-01-29T03:33:45.778Z,12.40
2023-01-29T03:36:17.063Z,14.20
2023-01-29T03:38:45.528Z,12.20
2023-01-29T03:41:28.862Z,10.80
2023-01-29T03:44:02.467Z,11.40
2023-01-29T03:46:56.756Z,9.90
2023-01-29T03:49:39.271Z,11.50
2023-01-29T03:52:16.315Z,9.80
2023-01-29T03:54:57.527Z,12.20
2023-01-29T03:57:32.151Z,12.50
2023-01-29T04:00:03.692Z,12.50
2023-01-29T04:02:35.462Z,11.10
2023-01-29T04:05:06.639Z,10.10
2023-01-29T04:07:34.874Z,10.00
2023-01-29T04:10:09.520Z,10.50
2023-01-29T04:12:48.528Z,11.90
2023-01-29T04:15:16.843Z,9.70
2023-01-29T04:17:52.872Z,12.30
2023-01-29T04:20:21.358Z,10.30
2023-01-29T04:22:51.675Z,9.90
2023-01-29T04:25:26.758Z,9.10
2023-01-29T04:27:54.622Z,10.80
2023-01-29T04:30:42.853Z,11.00
2023-01-29T04:33:29.076Z,8.60
2023-01-29T04:36:14.907Z,11.10
2023-01-29T04:38:52.183Z,9.90
2023-01-29T04:41:23.125Z,9.00
2023-01-29T04:43:56.934Z,8.80
2023-01-29T04:46:43.543Z,12.10
2023-01-29T04:49:17.732Z,9.50
2023-01-29T04:52:04.461Z,12.70
2023-01-29T04:54:50.417Z,11.00
2023-01-29T04:57:23.294Z,9.60
2023-01-29T04:59:55.391Z,9.90
2023-01-29T05:02:24.641Z,10.90
2023-01-29T05:04:53.250Z,9.10
2023-01-29T05:07:21.654Z,9.10
2023-01-29T05:09:50.795Z,8.60
2023-01-29T05:12:19.168Z,9.60
2023-01-29T05:14:47.683Z,10.30
2023-01-29T05:17:20.052Z,13.50
2023-01-29T05:19:48.167Z,9.90
2023-01-29T05:22:17.742Z,10.30
2023-01-29T05:24:46.637Z,10.50
2023-01-29T05:27:37.633Z,11.10
2023-01-29T05:30:05.915Z,10.30
2023-01-29T05:32:33.820Z,9.90
2023-01-29T05:35:01.614Z,10.50
2023-01-29T05:37:29.459Z,13.70
2023-01-29T05:39:57.374Z,12.60
2023-01-29T05:42:25.245Z,10.40
2023-01-29T05:44:53.080Z,12.10
2023-01-29T05:47:21.187Z,11.40
2023-01-29T05:49:48.979Z,11.70
2023-01-29T05:52:16.815Z,10.40
2023-01-29T05:54:44.616Z,11.60
2023-01-29T05:57:12.363Z,9.30
2023-01-29T05:59:40.087Z,10.50
2023-01-29T06:02:07.954Z,13.50
2023-01-29T06:04:35.921Z,13.30
2023-01-29T06:07:05.156Z,10.20
2023-01-29T06:09:33.085Z,12.30
2023-01-29T06:12:01.215Z,13.80
2023-01-29T06:14:29.126Z,10.80
2023-01-29T06:16:56.872Z,10.40
2023-01-29T06:19:24.635Z,11.00
2023-01-29T06:21:52.488Z,10.60
2023-01-29T06:24:20.412Z,11.50
2023-01-29T06:26:48.489Z,11.20
2023-01-29T06:29:16.338Z,10.10
2023-01-29T06:31:44.368Z,12.00
2023-01-29T06:34:12.320Z,10.80
2023-01-29T06:36:41.900Z,11.50
2023-01-29T06:39:09.728Z,13.00
2023-01-29T06:41:37.571Z,12.00
2023-01-29T06:44:05.508Z,14.50
2023-01-29T06:46:33.242Z,13.60
2023-01-29T06:49:01.151Z,12.30
2023-01-29T06:51:29.485Z,11.80
2023-01-29T06:53:57.533Z,14.90
2023-01-29T06:56:25.408Z,12.40
2023-01-29T06:58:53.275Z,13.60
2023-01-29T07:01:36.890Z,12.90
2023-01-29T07:04:04.975Z,15.80
2023-01-29T07:06:33.124Z,14.20
2023-01-29T07:09:04.669Z,12.80
2023-01-29T07:11:34.409Z,11.80
2023-01-29T07:14:02.303Z,14.60
2023-01-29T07:16:30.332Z,12.00
2023-01-29T07:18:58.424Z,16.30
2023-01-29T07:21:26.417Z,15.20
2023-01-29T07:23:54.400Z,14.40
2023-01-29T07:26:22.361Z,15.20
2023-01-29T07:28:50.227Z,14.40
2023-01-29T07:31:18.523Z,15.00
2023-01-29T07:33:46.559Z,14.10
2023-01-29T07:36:15.601Z,14.60
2023-01-29T07:38:44.038Z,20.60
2023-01-29T07:41:12.724Z,15.30
2023-01-29T07:43:40.704Z,15.30
2023-01-29T07:46:08.916Z,16.30
2023-01-29T07:48:36.967Z,18.00
2023-01-29T07:51:05.036Z,12.90
2023-01-29T07:53:33.170Z,13.40
2023-01-29T07:56:00.937Z,15.10
2023-01-29T07:58:28.787Z,14.30
2023-01-29T08:00:56.627Z,12.50
2023-01-29T08:03:24.532Z,14.50
2023-01-29T08:05:52.361Z,14.60
2023-01-29T08:08:20.203Z,20.10
2023-01-29T08:10:48.072Z,13.40
2023-01-29T08:13:16.007Z,13.90
2023-01-29T08:15:45.500Z,15.80
2023-01-29T08:18:13.949Z,16.90
2023-01-29T08:20:41.753Z,13.50
2023-01-29T08:23:12.731Z,14.60
2023-01-29T08:25:40.877Z,10.80
2023-01-29T08:28:09.050Z,12.60
2023-01-29T08:30:36.947Z,12.20
2023-01-29T08:33:04.712Z,14.30
2023-01-29T08:35:32.852Z,12.70
2023-01-29T08:38:02.185Z,14.10
2023-01-29T08:40:33.367Z,13.40
2023-01-29T08:43:02.732Z,12.90
2023-01-29T08:45:33.545Z,14.00
2023-01-29T08:48:01.631Z,15.60
2023-01-29T08:50:30.917Z,15.40
2023-01-29T08:52:59.516Z,16.20
2023-01-29T08:55:27.530Z,14.10
2023-01-29T08:57:57.368Z,13.40
2023-01-29T09:00:25.491Z,14.90
2023-01-29T09:02:53.481Z,13.10
2023-01-29T09:05:21.844Z,15.30
2023-01-29T09:07:49.747Z,13.00
2023-01-29T09:10:17.564Z,13.90
2023-01-29T09:12:45.507Z,14.10
2023-01-29T09:15:13.285Z,14.30
2023-01-29T09:17:41.249Z,14.00
2023-01-29T09:20:09.806Z,17.20
2023-01-29T09:22:37.553Z,15.30
2023-01-29T09:25:05.590Z,14.80
2023-01-29T09:27:33.395Z,13.60
2023-01-29T09:30:01.165Z,14.90
2023-01-29T09:32:52.535Z,13.40
2023-01-29T09:35:18.632Z,16.30
2023-01-29T09:37:50.024Z,17.00
2023-01-29T09:40:51.790Z,16.10
2023-01-29T09:43:21.616Z,16.30
2023-01-29T09:45:51.415Z,18.30
2023-01-29T09:48:20.049Z,16.40
2023-01-29T09:50:48.960Z,19.90
2023-01-29T09:53:21.877Z,19.90
2023-01-29T09:55:51.558Z,17.70
2023-01-29T09:58:24.157Z,18.10
2023-01-29T10:00:55.132Z,17.40
2023-01-29T10:03:33.093Z,17.70
2023-01-29T10:06:14.364Z,15.10
2023-01-29T10:09:13.162Z,17.40
2023-01-29T10:12:02.631Z,16.60
2023-01-29T10:14:39.999Z,15.00
2023-01-29T10:17:43.264Z,17.20
2023-01-29T10:20:29.292Z,17.20
2023-01-29T10:23:18.028Z,14.80
2023-01-29T10:25:49.413Z,19.20
2023-01-29T10:28:27.094Z,18.10
2023-01-29T10:31:02.339Z,18.30
2023-01-29T10:33:49.365Z,17.30
2023-01-29T10:36:30.214Z,15.90
2023-01-29T10:39:00.165Z,18.80
2023-01-29T10:41:33.824Z,21.10
2023-01-29T10:44:10.235Z,20.50
2023-01-29T10:46:51.836Z,17.70
2023-01-29T10:49:41.210Z,18.20
2023-01-29T10:52:28.977Z,17.80
2023-01-29T10:55:06.323Z,19.00
2023-01-29T10:57:35.689Z,17.30
2023-01-29T11:00:14.388Z,20.00
2023-01-29T11:02:46.306Z,18.30
2023-01-29T11:05:28.372Z,18.60
2023-01-29T11:08:04.174Z,15.50
2023-01-29T11:10:41.286Z,17.10
2023-01-29T11:13:16.566Z,17.60
2023-01-29T11:15:52.949Z,22.70
2023-01-29T11:18:30.881Z,18.80
2023-01-29T11:21:04.264Z,17.60
2023-01-29T11:23:35.972Z,19.10
2023-01-29T11:26:08.388Z,21.00
2023-01-29T11:28:40.635Z,19.90
2023-01-29T11:31:22.735Z,21.50
2023-01-29T11:34:03.484Z,21.20
2023-01-29T11:36:39.266Z,22.90
2023-01-29T11:39:25.147Z,21.70
2023-01-29T11:41:59.884Z,19.80
2023-01-29T11:44:43.604Z,24.80
2023-01-29T11:47:13.816Z,23.90
2023-01-29T11:49:53.645Z,24.70
2023-01-29T11:52:27.834Z,28.90
2023-01-29T11:55:02.877Z,23.80
2023-01-29T11:57:39.495Z,24.90
2023-01-29T12:00:36.317Z,23.90
2023-01-29T12:03:15.164Z,29.10
2023-01-29T12:05:56.770Z,26.90
2023-01-29T12:08:31.788Z,34.20
2023-01-29T12:11:13.720Z,37.50
2023-01-29T12:13:43.465Z,34.60
2023-01-29T12:16:21.681Z,27.90
2023-01-29T12:18:53.955Z,23.80
2023-01-29T12:21:40.925Z,25.00
2023-01-29T12:24:11.836Z,26.40
2023-01-29T12:26:44.500Z,28.50
2023-01-29T12:29:15.313Z,32.50
2023-01-29T12:31:46.487Z,35.00
2023-01-29T12:34:20.337Z,28.90
2023-01-29T12:36:55.329Z,38.40
2023-01-29T12:39:23.074Z,35.40
2023-01-29T12:41:54.133Z,40.50
2023-01-29T12:44:21.873Z,36.50
2023-01-29T12:46:52.945Z,37.40
2023-01-29T12:49:25.160Z,32.30
2023-01-29T12:51:59.451Z,32.00
2023-01-29T12:54:31.439Z,36.20
2023-01-29T12:57:02.271Z,27.20
2023-01-29T12:59:50.303Z,29.00
2023-01-29T13:02:32.109Z,26.90
2023-01-29T13:05:05.743Z,25.40
2023-01-29T13:07:36.408Z,29.20
2023-01-29T13:10:08.635Z,21.20
2023-01-29T13:12:37.468Z,22.40
2023-01-29T13:15:26.428Z,19.70
2023-01-29T13:17:56.794Z,20.80
2023-01-29T13:20:29.140Z,18.60
2023-01-29T13:23:13.363Z,22.90
2023-01-29T13:25:41.216Z,21.90
2023-01-29T13:28:24.201Z,24.10
2023-01-29T13:31:12.004Z,26.80
2023-01-29T13:33:41.023Z,26.60
2023-01-29T13:36:14.925Z,26.40
2023-01-29T13:38:45.145Z,28.50
2023-01-29T13:41:13.633Z,26.70
2023-01-29T13:43:42.956Z,24.10
2023-01-29T13:46:15.309Z,22.80
2023-01-29T13:48:44.910Z,25.50
2023-01-29T13:51:17.811Z,23.40
2023-01-29T13:54:00.513Z,26.70
2023-01-29T13:56:34.753Z,28.40
2023-01-29T13:59:05.467Z,24.60
2023-01-29T14:01:45.747Z,29.90
2023-01-29T14:04:19.675Z,30.80
2023-01-29T14:06:51.754Z,26.30
2023-01-29T14:09:37.757Z,27.80
2023-01-29T14:12:25.702Z,30.30
2023-01-29T14:14:56.806Z,26.00
2023-01-29T14:17:26.039Z,28.50
2023-01-29T14:19:58.076Z,22.70
2023-01-29T14:22:27.785Z,22.80
2023-01-29T14:24:57.270Z,26.50
2023-01-29T14:27:27.813Z,25.60
2023-01-29T14:30:00.388Z,27.10
2023-01-29T14:32:28.659Z,26.20
2023-01-29T14:34:56.533Z,31.80
2023-01-29T14:37:35.560Z,29.90
2023-01-29T14:40:12.242Z,26.40
2023-01-29T14:42:45.722Z,28.00
2023-01-29T14:45:13.590Z,27.60
2023-01-29T14:47:41.465Z,30.30
2023-01-29T14:50:27.854Z,34.00
2023-01-29T14:53:06.746Z,25.80
2023-01-29T14:55:42.804Z,26.70
2023-01-29T14:58:14.835Z,27.10
2023-01-29T15:00:45.045Z,27.80
2023-01-29T15:03:20.283Z,23.50
2023-01-29T15:05:48.696Z,26.60
2023-01-29T15:08:35.114Z,23.30
2023-01-29T15:11:25.406Z,23.90
2023-01-29T15:14:08.772Z,23.70
2023-01-29T15:16:46.272Z,24.00
2023-01-29T15:19:18.258Z,21.90
2023-01-29T15:22:05.245Z,20.20
2023-01-29T15:24:33.224Z,21.90
2023-01-29T15:27:01.753Z,23.50
2023-01-29T15:29:29.842Z,21.50
2023-01-29T15:31:58.247Z,23.00
2023-01-29T15:34:26.217Z,25.50
2023-01-29T15:36:54.211Z,32.60
2023-01-29T15:39:23.734Z,26.50
2023-01-29T15:42:04.467Z,30.20
2023-01-29T15:44:33.373Z,28.30
2023-01-29T15:47:02.027Z,25.40
2023-01-29T15:49:30.317Z,29.30
2023-01-29T15:51:59.540Z,30.00
2023-01-29T15:54:36.386Z,29.40
2023-01-29T16:00:25.352Z,42.20
2023-01-29T16:03:03.037Z,50.70
2023-01-29T16:05:33.614Z,53.80
2023-01-29T16:08:13.622Z,36.50
2023-01-29T16:10:54.471Z,39.20
2023-01-29T16:13:34.938Z,38.00
2023-01-29T16:16:26.551Z,38.30
2023-01-29T16:19:04.240Z,36.90
2023-01-29T16:21:56.602Z,28.30
2023-01-29T16:24:53.279Z,25.60
2023-01-29T16:27:35.526Z,27.70
2023-01-29T16:30:31.739Z,31.60
2023-01-29T16:33:33.306Z,26.10
2023-01-29T16:36:25.940Z,22.50
2023-01-29T16:39:46.662Z,27.10
2023-01-29T16:42:39.813Z,23.20
2023-01-29T16:45:31.350Z,28.90
2023-01-29T16:48:09.787Z,22.70
2023-01-29T16:50:54.983Z,21.80
2023-01-29T16:53:37.457Z,21.80
2023-01-29T16:56:35.410Z,24.90
2023-01-29T16:59:49.388Z,23.80
2023-01-29T17:02:26.653Z,24.40
2023-01-29T17:05:05.057Z,26.30
2023-01-29T17:07:55.334Z,25.00
2023-01-29T17:10:26.499Z,25.10
2023-01-29T17:13:08.232Z,26.50
2023-01-29T17:15:45.860Z,26.80
2023-01-29T17:18:29.514Z,23.10
2023-01-29T17:21:06.351Z,22.80
2023-01-29T17:23:40.198Z,26.10
2023-01-29T17:26:14.967Z,22.30
2023-01-29T17:28:49.754Z,22.30
2023-01-29T17:31:23.322Z,21.60
2023-01-29T17:34:04.779Z,23.30
2023-01-29T17:36:52.845Z,21.20
2023-01-29T17:39:31.146Z,20.80
2023-01-29T17:42:05.523Z,19.20
2023-01-29T17:44:42.731Z,22.10
2023-01-29T17:47:38.357Z,21.10
2023-01-29T17:50:21.247Z,22.00
2023-01-29T17:52:52.499Z,19.30
2023-01-29T17:55:25.409Z,18.80
2023-01-29T17:58:01.729Z,57.30
2023-01-29T18:00:38.354Z,32.00
2023-01-29T18:03:18.333Z,53.20
2023-01-29T18:06:08.718Z,43.60
2023-01-29T18:08:46.620Z,20.10
2023-01-29T18:11:24.708Z,21.20
2023-01-29T18:13:57.068Z,19.20
2023-01-29T18:16:37.808Z,22.10
2023-01-29T18:19:17.664Z,19.70
2023-01-29T18:21:51.910Z,20.40
2023-01-29T18:24:27.931Z,19.10
2023-01-29T18:27:07.793Z,23.60
2023-01-29T18:29:39.906Z,19.80
2023-01-29T18:32:13.648Z,18.50
2023-01-29T18:34:54.360Z,20.80
2023-01-29T18:37:27.162Z,18.90
2023-01-29T18:39:59.846Z,18.70
2023-01-29T18:42:39.251Z,18.80
2023-01-29T18:45:13.156Z,20.20
2023-01-29T18:47:55.237Z,20.90
2023-01-29T18:50:29.530Z,18.70
2023-01-29T18:53:05.211Z,17.40
2023-01-29T18:55:36.585Z,17.90
2023-01-29T18:58:29.019Z,21.50
2023-01-29T19:01:00.224Z,17.80
2023-01-29T19:03:31.834Z,18.50
2023-01-29T19:06:07.647Z,18.00
2023-01-29T19:08:52.445Z,18.70
2023-01-29T19:11:30.955Z,18.00
2023-01-29T19:14:09.347Z,18.70
2023-01-29T19:16:57.747Z,17.60
2023-01-29T19:19:30.211Z,17.70
2023-01-29T19:22:10.664Z,18.80
2023-01-29T19:24:45.268Z,16.70
2023-01-29T19:27:19.204Z,20.20
2023-01-29T19:29:57.012Z,19.80
2023-01-29T19:32:31.086Z,22.20
2023-01-29T19:35:04.996Z,17.20
2023-01-29T19:37:38.426Z,16.00
2023-01-29T19:40:11.273Z,14.40
2023-01-29T19:42:44.835Z,15.70
2023-01-29T19:45:23.642Z,17.40
2023-01-29T19:48:12.079Z,15.30
2023-01-29T19:51:04.378Z,14.90
2023-01-29T19:53:37.488Z,16.50
2023-01-29T19:56:09.672Z,16.40
2023-01-29T19:58:37.929Z,26.10
2023-01-29T20:01:07.711Z,33.20
2023-01-29T20:03:35.553Z,23.80
2023-01-29T20:06:05.407Z,16.60
2023-01-29T20:08:34.438Z,19.70
2023-01-29T20:11:02.516Z,24.90
2023-01-29T20:13:30.617Z,22.10
2023-01-29T20:16:03.061Z,27.80
2023-01-29T20:18:31.949Z,24.90
2023-01-29T20:21:05.438Z,27.70
2023-01-29T20:23:38.238Z,31.10
2023-01-29T20:26:08.215Z,26.20
2023-01-29T20:28:36.733Z,30.20
2023-01-29T20:31:05.279Z,21.90
2023-01-29T20:33:38.796Z,27.70
2023-01-29T20:36:09.649Z,21.90
2023-01-29T20:38:37.835Z,19.70
2023-01-29T20:41:07.409Z,20.40
2023-01-29T20:43:35.625Z,20.40
2023-01-29T20:46:05.091Z,19.90
2023-01-29T20:48:33.964Z,18.50
2023-01-29T20:51:09.876Z,17.50
2023-01-29T20:53:38.276Z,18.90
2023-01-29T20:56:06.813Z,17.80
2023-01-29T20:58:35.171Z,20.20
2023-01-29T21:01:10.753Z,21.20
2023-01-29T21:03:39.759Z,17.20
2023-01-29T21:06:08.983Z,20.80
2023-01-29T21:08:38.161Z,16.30
2023-01-29T21:11:07.509Z,19.40
2023-01-29T21:13:36.001Z,19.20
2023-01-29T21:16:03.939Z,15.60
2023-01-29T21:18:32.340Z,19.40
2023-01-29T21:21:00.224Z,18.70
2023-01-29T21:23:28.020Z,16.50
2023-01-29T21:26:05.960Z,19.50
2023-01-29T21:28:33.981Z,19.60
2023-01-29T21:31:05.601Z,16.90
2023-01-29T21:33:35.041Z,16.10
2023-01-29T21:36:03.880Z,16.50
2023-01-29T21:38:32.052Z,17.40
2023-01-29T21:41:00.891Z,18.10
2023-01-29T21:43:28.898Z,17.60
2023-01-29T21:45:57.758Z,17.50
2023-01-29T21:48:26.230Z,18.50
2023-01-29T21:50:54.134Z,15.30
2023-01-29T21:53:22.218Z,17.60
2023-01-29T21:55:50.070Z,16.50
2023-01-29T21:58:19.918Z,18.30
2023-01-29T22:00:48.929Z,18.00
2023-01-29T22:03:16.884Z,15.30
2023-01-29T22:05:44.735Z,14.50
2023-01-29T22:08:12.528Z,15.90
2023-01-29T22:10:40.391Z,17.70
2023-01-29T22:13:08.288Z,17.90
2023-01-29T22:15:36.008Z,16.80
2023-01-29T22:18:03.850Z,18.90
2023-01-29T22:20:31.835Z,18.80
2023-01-29T22:23:00.619Z,15.90
2023-01-29T22:25:28.605Z,17.30
2023-01-29T22:27:56.519Z,18.10
2023-01-29T22:30:24.675Z,16.70
2023-01-29T22:32:52.518Z,19.30
2023-01-29T22:35:20.397Z,15.30
2023-01-29T22:37:48.236Z,8.80
2023-01-29T22:42:43.877Z,15.70
2023-01-29T22:45:11.706Z,15.90
2023-01-29T22:47:39.700Z,17.40
2023-01-29T22:50:07.730Z,17.40
2023-01-29T22:52:39.291Z,15.40
2023-01-29T22:55:08.272Z,15.20
2023-01-29T22:57:36.448Z,15.40
2023-01-29T23:00:09.478Z,17.40
2023-01-29T23:02:37.619Z,15.50
2023-01-29T23:05:05.872Z,14.70
2023-01-29T23:07:33.833Z,16.50
2023-01-29T23:10:01.627Z,16.60
2023-01-29T23:12:29.446Z,18.80
2023-01-29T23:14:57.192Z,19.10
2023-01-29T23:19:52.549Z,17.60
2023-01-29T23:22:20.318Z,16.40
2023-01-29T23:24:48.181Z,17.10
2023-01-29T23:27:16.018Z,15.10
2023-01-29T23:29:45.004Z,16.30
2023-01-29T23:32:14.444Z,18.70
2023-01-29T23:34:42.541Z,19.40
2023-01-29T23:37:10.377Z,16.10
2023-01-29T23:39:38.224Z,16.00
2023-01-29T23:42:06.000Z,16.20
2023-01-29T23:44:34.095Z,12.80
2023-01-29T23:47:01.919Z,15.20
2023-01-29T23:49:29.822Z,17.50
2023-01-29T23:51:57.582Z,15.40
2023-01-29T23:54:25.402Z,15.10
2023-01-29T23:56:53.353Z,14.70
2023-01-29T23:59:21.319Z,14.90
